Ana Sayfa
METAR-TAF:

METAR-TAF

Havaalanları :

Bağdat Uluslararası Havaalanı

Bağdat, Irak

Enlem: 33-15-45N, Boylam: 44-14-04E, yükseklik: 35 m

Güncel hava durumu gözlemi

Rapor saat 12:00 UTC de 26 dakika önce yapıldı.
Rüzgar kuzeybatıdan 8 kt, batı ve kuzey arasında değişken
Sıcaklık 22°C
Nem 23%
Basınç 1015 hPa
Görüş mesafesi 10 km veya daha fazla
1500 m altında bulut yok ve kümülonimbus yok

METAR: ORBI 211200Z 32008KT 280V010 CAVOK 22/M00 Q1015 NOSIG

Saat: 15:26 (12:26 UTC)

Tahmin

Rapor saat 04:00 UTC de 8 saat ve 26 dakika önce yapıldı.
Ayın 21'si saat 06 UTC'den ayın 22'si saat 06 UTC'ye kadar geçerli Tahmin
Rüzgar kuzeybatıdan 8 kt
Görüş mesafesi 10 km veya daha fazla
1500 m altında bulut yok ve kümülonimbus yok

TAF: ORBI 210400Z 2106/2206 32008KT CAVOK

4.000'den fazla havaalanı için hava durumu gözlemleri ve tahminleri (METAR ve TAF raporları).

Kullanılabilir istasyonlar harita üzerinde sarı ve kırmızı noktalarla gösterilir.

İstasyonun adını görmek için fareyi noktanın üzerinde gezdirin.

Sonrasında hava gözlem ve tahminlerini görmek için tıklayın.

Haritayı değiştirmek için: yaklaştırmak için siyah artı işaretli yeşil düğmeye ve uzaklaştırmak için de eksi işaretli düğmeye hızla tıklayın; bitişik haritalar için yeşil okları kullanın.


METAR-TAF: